Portada
METAR-TAF:

METAR-TAF

Aeropuertos :

Wiener Neustadt, Austria

latitud: 47-50-36N, longitud: 016-15-29E, altitud: 272 m

Observación

El informe se hizo hace 9 horas y 31 minutos, a las 17:00 UTC
Viento 5 kt del oeste
Temperatura
Presión

METAR: LOAN 261700Z 28005KT 25KM FEW035CU SCT070SC BKN100AC

Hora: 03:31 (02:31 UTC)

Pronóstico

El informe se hizo hace 15 horas y 6 minutos, a las 11:25 UTC
Pronóstico válido del 26 a las 12 UTC al 26 a las 21 UTC
Viento 12 kt del oeste-noroeste
Visibilidad 10 km o más
Escasas nubes a una altura de 3000 ft
Nubes dispersas a una altura de 5000 ft
Cielo nuboso a una altura de 9000 ft
Temporalmente
del 26 a las 12 UTC al 26 a las 16 UTC
Viento 20 kt del oeste-noroeste con ráfagas de 30 kt

TAF: LOAN 261125Z 2612/2621 30012KT 9999 FEW030 SCT050 BKN090 TEMPO 2612/2616 30020G30KT

Observaciones y pronósticos meteorológicos de más de 4000 aeropuertos (mensajes METAR y TAF).

Los puntos amarillos y rojos representan las estaciones disponibles.

Ponga el ratón en el punto deseado para ver el nombre de la estación.

Haga clic para ver las observaciones y los pronósticos meteorológicos.

Para cambiar el mapa : haga clic en los botones verdes con una cruz de color negro para hacer un zoom, en el botón verde con un guión para alejar o en las flechas verdes para mapas adyacentes.


METAR-TAF: